createdAt,value
2023-03-06T08:28:40.088Z,97.10
2023-03-06T08:29:40.116Z,95.81
2023-03-06T08:30:40.193Z,95.91
2023-03-06T08:31:40.044Z,95.39
2023-03-06T08:32:40.020Z,95.29
2023-03-06T08:33:39.991Z,95.56
2023-03-06T08:34:39.946Z,95.35
2023-03-06T08:35:40.164Z,94.82
2023-03-06T08:36:39.933Z,94.66
2023-03-06T08:37:41.104Z,94.76
2023-03-06T08:38:41.066Z,96.03
2023-03-06T08:39:41.059Z,94.82
2023-03-06T08:40:40.999Z,94.31
2023-03-06T08:41:40.988Z,94.51
2023-03-06T08:42:41.010Z,94.37
2023-03-06T08:43:40.998Z,93.43
2023-03-06T08:44:40.978Z,93.64
2023-03-06T08:45:41.098Z,95.09
2023-03-06T08:46:40.936Z,95.09
2023-03-06T08:47:40.918Z,93.33
2023-03-06T08:48:40.914Z,93.49
2023-03-06T08:49:40.934Z,93.55
2023-03-06T08:50:40.892Z,93.29
2023-03-06T08:51:40.874Z,92.39
2023-03-06T08:52:40.888Z,92.85
2023-03-06T08:53:43.627Z,93.41
2023-03-06T08:54:41.881Z,94.10
2023-03-06T08:55:40.898Z,93.73
2023-03-06T08:56:40.851Z,94.45
2023-03-06T08:57:40.802Z,93.52
2023-03-06T08:58:40.799Z,94.56
2023-03-06T08:59:40.830Z,93.62
2023-03-06T09:00:40.851Z,93.73
2023-03-06T09:01:40.822Z,93.41
2023-03-06T09:02:40.996Z,93.52
2023-03-06T09:03:42.621Z,93.87
2023-03-06T09:04:40.746Z,93.14
2023-03-06T09:05:40.741Z,94.60
2023-03-06T09:06:40.713Z,94.85
2023-03-06T09:07:40.693Z,95.12
2023-03-06T09:08:40.709Z,95.54
2023-03-06T09:09:40.693Z,95.02
2023-03-06T09:10:40.706Z,94.92
2023-03-06T09:11:40.656Z,94.70
2023-03-06T09:12:49.862Z,93.91
2023-03-06T09:13:40.779Z,94.60
2023-03-06T09:14:40.630Z,95.43
2023-03-06T09:15:40.750Z,94.81
2023-03-06T09:16:41.079Z,95.02
2023-03-06T09:17:40.695Z,95.43
2023-03-06T09:18:40.595Z,94.18
2023-03-06T09:19:40.609Z,94.04
2023-03-06T09:20:40.565Z,92.85
2023-03-06T09:21:40.542Z,92.95
2023-03-06T09:22:40.550Z,92.89
2023-03-06T09:23:40.513Z,92.27
2023-03-06T09:24:40.781Z,92.37
2023-03-06T09:25:40.585Z,92.12
2023-03-06T09:26:46.161Z,91.91
2023-03-06T09:27:41.499Z,91.60
2023-03-06T09:28:40.442Z,91.81
2023-03-06T09:29:40.457Z,91.35
2023-03-06T09:30:40.591Z,90.41
2023-03-06T09:31:40.435Z,89.23
2023-03-06T09:32:40.572Z,90.06
2023-03-06T09:33:40.445Z,89.02
2023-03-06T09:34:40.413Z,89.60
2023-03-06T09:35:40.465Z,88.23
2023-03-06T09:36:55.644Z,84.44
2023-03-06T09:37:41.393Z,82.49
2023-03-06T09:38:40.381Z,82.84
2023-03-06T09:39:40.380Z,83.60
2023-03-06T09:40:40.378Z,85.72
2023-03-06T09:41:40.305Z,85.72
2023-03-06T09:42:40.308Z,85.13
2023-03-06T09:43:40.327Z,86.07
2023-03-06T09:44:40.284Z,85.88
2023-03-06T09:45:40.350Z,83.32
2023-03-06T09:46:40.273Z,82.63
2023-03-06T09:47:40.230Z,84.50
2023-03-06T09:48:40.237Z,84.70
2023-03-06T09:49:40.244Z,83.01
2023-03-06T09:50:40.260Z,84.74
2023-03-06T09:51:40.191Z,85.47
2023-03-06T09:52:40.214Z,84.47
2023-03-06T09:53:40.187Z,84.27
2023-03-06T09:54:40.157Z,85.10
2023-03-06T09:55:40.216Z,85.30
2023-03-06T09:56:40.154Z,84.27
2023-03-06T09:57:40.117Z,83.01
2023-03-06T09:58:40.120Z,82.25
2023-03-06T09:59:40.112Z,81.94
2023-03-06T10:00:40.115Z,81.63
2023-03-06T10:01:40.085Z,80.93
2023-03-06T10:02:40.197Z,80.47
2023-03-06T10:03:40.097Z,80.16
2023-03-06T10:04:40.158Z,75.15
2023-03-06T10:05:40.100Z,74.74
2023-03-06T10:06:40.026Z,76.05
2023-03-06T10:07:40.025Z,74.88
2023-03-06T10:08:40.009Z,73.77
2023-03-06T10:09:39.990Z,75.22
2023-03-06T10:10:40.050Z,76.40
2023-03-06T10:11:39.975Z,77.16
2023-03-06T10:12:39.983Z,75.12
2023-03-06T10:13:39.950Z,76.36
2023-03-06T10:14:39.935Z,77.15
2023-03-06T10:15:39.977Z,75.22
2023-03-06T10:16:39.926Z,75.02
2023-03-06T10:17:42.193Z,75.19
2023-03-06T10:18:39.946Z,76.47
2023-03-06T10:19:39.908Z,77.72
2023-03-06T10:20:40.393Z,78.65
2023-03-06T10:21:39.909Z,79.83
2023-03-06T10:22:39.852Z,79.58
2023-03-06T10:23:39.834Z,80.77
2023-03-06T10:24:39.828Z,80.98
2023-03-06T10:25:39.849Z,80.63
2023-03-06T10:26:39.963Z,81.05
2023-03-06T10:27:39.792Z,81.53
2023-03-06T10:28:39.838Z,81.81
2023-03-06T10:29:41.048Z,81.49
2023-03-06T10:30:39.760Z,80.32
2023-03-06T10:31:39.805Z,80.04
2023-03-06T10:32:47.916Z,80.52
2023-03-06T10:33:39.755Z,80.32
2023-03-06T10:34:39.743Z,79.48
2023-03-06T10:35:39.703Z,79.06
2023-03-06T10:36:39.696Z,78.86
2023-03-06T10:37:39.767Z,78.65
2023-03-06T10:38:39.666Z,79.17
2023-03-06T10:39:39.652Z,78.89
2023-03-06T10:40:39.703Z,78.83
2023-03-06T10:41:39.651Z,79.97
2023-03-06T10:42:39.693Z,79.45
2023-03-06T10:43:39.637Z,80.70
2023-03-06T10:44:39.656Z,79.14
2023-03-06T10:45:48.974Z,79.66
2023-03-06T10:46:40.740Z,80.60
2023-03-06T10:47:39.589Z,81.15
2023-03-06T10:48:41.709Z,80.63
2023-03-06T10:49:39.557Z,80.74
2023-03-06T10:50:39.563Z,80.94
2023-03-06T10:51:39.542Z,80.74
2023-03-06T10:52:39.520Z,81.26
2023-03-06T10:53:39.562Z,80.32
2023-03-06T10:54:39.508Z,80.63
2023-03-06T10:55:39.508Z,80.49
2023-03-06T10:56:39.538Z,80.91
2023-03-06T10:57:39.471Z,80.08
2023-03-06T10:58:39.504Z,80.84
2023-03-06T10:59:39.436Z,80.84
2023-03-06T11:00:39.441Z,79.66
2023-03-06T11:01:39.444Z,80.01
2023-03-06T11:02:39.434Z,80.53
2023-03-06T11:03:39.413Z,80.60
2023-03-06T11:04:39.390Z,80.60
2023-03-06T11:05:39.392Z,78.72
2023-03-06T11:06:39.368Z,79.45
2023-03-06T11:07:39.360Z,79.14
2023-03-06T11:08:39.347Z,80.98
2023-03-06T11:09:39.369Z,80.49
2023-03-06T11:10:39.303Z,79.66
2023-03-06T11:11:39.306Z,80.84
2023-03-06T11:12:39.357Z,80.91
2023-03-06T11:13:39.277Z,80.60
2023-03-06T11:14:39.329Z,81.15
2023-03-06T11:15:39.942Z,80.80
2023-03-06T11:16:39.292Z,81.74
2023-03-06T11:17:39.235Z,80.91
2023-03-06T11:18:39.232Z,80.80
2023-03-06T11:19:39.257Z,79.91
2023-03-06T11:20:50.985Z,81.26
2023-03-06T11:21:39.231Z,81.26
2023-03-06T11:22:39.218Z,81.43
2023-03-06T11:23:39.182Z,80.87
2023-03-06T11:24:39.796Z,80.91
2023-03-06T11:25:39.209Z,80.77
2023-03-06T11:26:39.143Z,80.56
2023-03-06T11:27:39.125Z,80.74
2023-03-06T11:28:39.112Z,81.12
2023-03-06T11:29:39.217Z,80.39
2023-03-06T11:30:39.128Z,81.05
2023-03-06T11:31:39.175Z,81.57
2023-03-06T11:32:39.103Z,82.46
2023-03-06T11:33:39.061Z,82.26
2023-03-06T11:34:39.028Z,81.74
2023-03-06T11:35:39.098Z,81.49
2023-03-06T11:36:39.016Z,80.80
2023-03-06T11:37:39.007Z,80.46
2023-03-06T11:38:39.043Z,80.66
2023-03-06T11:39:38.981Z,80.15
2023-03-06T11:40:39.007Z,80.46
2023-03-06T11:41:38.992Z,80.56
2023-03-06T11:42:38.950Z,80.66
2023-03-06T11:43:38.963Z,80.25
2023-03-06T11:44:38.968Z,79.45
2023-03-06T11:45:38.908Z,80.60
2023-03-06T11:46:38.972Z,80.84
2023-03-06T11:47:38.885Z,80.63
2023-03-06T11:48:38.904Z,81.26
2023-03-06T11:49:38.866Z,80.46
2023-03-06T11:50:39.852Z,81.71
2023-03-06T11:51:38.886Z,82.13
2023-03-06T11:52:38.839Z,82.23
2023-03-06T11:53:38.849Z,83.27
2023-03-06T11:54:38.791Z,83.06
2023-03-06T11:55:38.846Z,84.21
2023-03-06T11:56:38.825Z,81.92
2023-03-06T11:57:38.789Z,83.48
2023-03-06T11:58:38.784Z,83.20
2023-03-06T11:59:38.795Z,82.27
2023-03-06T12:00:38.740Z,82.79
2023-03-06T12:01:38.803Z,82.54
2023-03-06T12:02:38.739Z,82.65
2023-03-06T12:03:38.711Z,82.27
2023-03-06T12:04:38.729Z,82.58
2023-03-06T12:05:38.788Z,82.17
2023-03-06T12:06:38.713Z,82.17
2023-03-06T12:07:38.728Z,82.17
2023-03-06T12:08:38.662Z,82.89
2023-03-06T12:09:38.637Z,84.66
2023-03-06T12:10:38.654Z,83.94
2023-03-06T12:11:38.638Z,84.04
2023-03-06T12:12:38.662Z,83.90
2023-03-06T12:13:38.600Z,84.42
2023-03-06T12:14:38.625Z,85.46
2023-03-06T12:15:38.600Z,85.25
2023-03-06T12:16:38.688Z,85.19
2023-03-06T12:17:38.554Z,85.25
2023-03-06T12:18:38.592Z,85.25
2023-03-06T12:19:38.555Z,85.25
2023-03-06T12:20:38.514Z,85.35
2023-03-06T12:21:38.529Z,84.04
2023-03-06T12:22:38.500Z,85.39
2023-03-06T12:23:39.557Z,84.77
2023-03-06T12:24:38.485Z,85.39
2023-03-06T12:25:38.463Z,85.71
2023-03-06T12:26:38.495Z,85.39
2023-03-06T12:27:38.446Z,85.60
2023-03-06T12:28:38.449Z,84.42
2023-03-06T12:29:38.455Z,85.04
2023-03-06T12:30:38.429Z,84.98
2023-03-06T12:31:38.408Z,85.50
2023-03-06T12:32:38.435Z,83.62
2023-03-06T12:33:38.423Z,84.66
2023-03-06T12:34:38.399Z,85.50
2023-03-06T12:35:38.416Z,85.91
2023-03-06T12:36:38.369Z,85.29
2023-03-06T12:37:38.322Z,85.60
2023-03-06T12:38:38.315Z,86.16
2023-03-06T12:39:38.331Z,85.60
2023-03-06T12:40:38.301Z,85.96
2023-03-06T12:41:38.275Z,85.91
2023-03-06T12:42:38.259Z,85.08
2023-03-06T12:43:40.074Z,85.53
2023-03-06T12:44:38.264Z,86.02
2023-03-06T12:45:38.402Z,86.65
2023-03-06T12:46:38.231Z,86.50
2023-03-06T12:47:38.228Z,85.81
2023-03-06T12:48:38.212Z,86.60
2023-03-06T12:49:38.251Z,85.88
2023-03-06T12:50:38.169Z,85.88
2023-03-06T12:51:38.170Z,85.56
2023-03-06T12:52:38.146Z,85.77
2023-03-06T12:53:38.137Z,86.65
2023-03-06T12:56:03.428Z,86.22
2023-03-06T12:56:09.897Z,88.31
2023-03-06T12:57:09.862Z,88.89
2023-03-06T12:58:09.899Z,88.52
2023-03-06T12:59:09.849Z,88.20
2023-03-06T13:00:09.869Z,89.39
2023-03-06T13:01:10.046Z,89.18
2023-03-06T13:02:09.858Z,89.39
2023-03-06T13:03:09.817Z,89.91
2023-03-06T13:04:09.807Z,91.06
2023-03-06T13:05:09.809Z,91.89
2023-03-06T13:06:09.759Z,92.00
2023-03-06T13:07:09.754Z,91.27
2023-03-06T13:08:09.780Z,91.06
2023-03-06T13:09:09.737Z,90.64
2023-03-06T13:10:10.206Z,91.60
2023-03-06T13:11:09.687Z,90.72
2023-03-06T13:12:09.695Z,89.79
2023-03-06T13:13:09.687Z,89.64
2023-03-06T13:14:09.831Z,90.06
2023-03-06T13:15:09.688Z,90.00
2023-03-06T13:16:09.659Z,91.00
2023-03-06T13:17:09.661Z,89.64
2023-03-06T13:18:09.629Z,91.31
2023-03-06T13:19:09.637Z,90.47
2023-03-06T13:20:09.593Z,89.06
2023-03-06T13:21:09.650Z,90.39
2023-03-06T13:22:09.584Z,90.45
2023-03-06T13:23:09.560Z,88.75
2023-03-06T13:24:09.558Z,89.17
2023-03-06T13:25:09.555Z,88.71
2023-03-06T13:26:09.579Z,88.60
2023-03-06T13:27:09.522Z,88.50
2023-03-06T13:28:09.536Z,89.64
2023-03-06T13:29:09.489Z,89.69
2023-03-06T13:30:09.502Z,90.20
2023-03-06T13:31:21.383Z,89.58
2023-03-06T13:32:09.517Z,89.31
2023-03-06T13:33:09.438Z,91.14
2023-03-06T13:34:09.568Z,90.52
2023-03-06T13:35:09.452Z,89.69
2023-03-06T13:36:09.454Z,89.04
2023-03-06T13:37:09.428Z,89.45
2023-03-06T13:38:09.421Z,89.08
2023-03-06T13:39:09.389Z,90.29
2023-03-06T13:40:09.362Z,90.29
2023-03-06T13:41:09.369Z,91.16
2023-03-06T13:42:09.393Z,91.16
2023-03-06T13:43:09.311Z,91.33
2023-03-06T13:44:09.323Z,90.22
2023-03-06T13:45:09.316Z,91.43
2023-03-06T13:46:09.370Z,92.27
2023-03-06T13:47:09.312Z,91.89
2023-03-06T13:48:33.700Z,92.41
2023-03-06T13:49:11.284Z,92.10
2023-03-06T13:50:09.252Z,92.93
2023-03-06T13:51:09.238Z,93.18
2023-03-06T13:52:09.241Z,93.85
2023-03-06T13:53:09.256Z,93.75
2023-03-06T13:54:09.304Z,93.90
2023-03-06T13:55:09.218Z,94.57
2023-03-06T13:56:09.655Z,95.50
2023-03-06T13:57:09.204Z,96.13
2023-03-06T13:58:09.224Z,95.19
2023-03-06T13:59:11.126Z,95.46
2023-03-06T14:00:10.043Z,92.69
2023-03-06T14:01:09.205Z,92.90
2023-03-06T14:02:09.108Z,93.10
2023-03-06T14:03:09.091Z,93.67
2023-03-06T14:04:10.126Z,93.31
2023-03-06T14:05:10.125Z,92.63
2023-03-06T14:06:09.068Z,93.57
2023-03-06T14:07:09.042Z,94.09
2023-03-06T14:08:09.077Z,94.65
2023-03-06T14:09:09.081Z,95.07
2023-03-06T14:10:09.069Z,96.22
2023-03-06T14:11:09.004Z,96.78
2023-03-06T14:12:09.589Z,97.20
2023-03-06T14:13:08.987Z,97.52
2023-03-06T14:14:08.989Z,98.88
2023-03-06T14:15:09.002Z,98.77
2023-03-06T14:16:09.008Z,98.88
2023-03-06T14:17:08.952Z,99.19
2023-03-06T14:18:08.930Z,99.15
2023-03-06T14:19:08.943Z,98.52
2023-03-06T14:20:08.955Z,98.98
2023-03-06T14:21:08.899Z,97.05
2023-03-06T14:22:08.903Z,97.01
2023-03-06T14:23:08.877Z,96.70
2023-03-06T14:24:08.894Z,97.37
2023-03-06T14:25:08.871Z,97.32
2023-03-06T14:26:08.860Z,96.76
2023-03-06T14:27:09.829Z,96.23
2023-03-06T14:28:14.066Z,96.13
2023-03-06T14:29:08.839Z,95.98
2023-03-06T14:30:08.818Z,95.67
2023-03-06T14:31:08.821Z,95.78
2023-03-06T14:32:08.803Z,95.04
2023-03-06T14:33:08.784Z,94.84
2023-03-06T14:34:08.778Z,95.42
2023-03-06T14:35:08.759Z,95.10
2023-03-06T14:36:08.770Z,94.02
2023-03-06T14:37:08.740Z,92.49
2023-03-06T14:38:08.713Z,88.60
2023-03-06T14:39:08.755Z,89.76
2023-03-06T14:40:08.863Z,91.85
2023-03-06T14:41:08.717Z,91.81
2023-03-06T14:42:08.671Z,91.35
2023-03-06T14:43:08.639Z,89.02
2023-03-06T14:44:08.678Z,89.23
2023-03-06T14:45:08.665Z,89.31
2023-03-06T14:46:08.670Z,91.18
2023-03-06T14:47:08.658Z,91.28
2023-03-06T14:48:08.609Z,91.22
2023-03-06T14:49:08.618Z,91.12
2023-03-06T14:50:08.613Z,90.60
2023-03-06T14:51:09.394Z,90.85
2023-03-06T14:52:08.547Z,91.68
2023-03-06T14:53:08.550Z,92.06
2023-03-06T14:54:08.697Z,92.06
2023-03-06T14:55:08.619Z,92.21
2023-03-06T14:56:08.533Z,92.62
2023-03-06T14:57:08.532Z,92.37
2023-03-06T14:58:08.535Z,91.02
2023-03-06T14:59:08.513Z,90.77
2023-03-06T15:00:09.398Z,90.25
2023-03-06T15:01:08.465Z,90.77
2023-03-06T15:02:08.568Z,89.27
2023-03-06T15:03:08.501Z,89.12
2023-03-06T15:04:08.484Z,88.77
2023-03-06T15:05:08.446Z,87.94
2023-03-06T15:06:08.401Z,88.46
2023-03-06T15:07:08.402Z,88.25
2023-03-06T15:08:08.395Z,87.79
2023-03-06T15:09:08.461Z,86.90
2023-03-06T15:10:08.402Z,87.32
2023-03-06T15:11:08.338Z,88.04
2023-03-06T15:12:08.319Z,87.69
2023-03-06T15:13:08.333Z,87.11
2023-03-06T15:14:08.336Z,87.84
2023-03-06T15:15:08.320Z,87.63
2023-03-06T15:16:08.321Z,87.21
2023-03-06T15:17:08.306Z,88.19
2023-03-06T15:18:08.264Z,88.19
2023-03-06T15:19:08.255Z,88.40
2023-03-06T15:20:08.298Z,88.60
2023-03-06T15:21:08.219Z,88.33
2023-03-06T15:22:08.203Z,88.81
2023-03-06T15:23:08.224Z,88.64
2023-03-06T15:24:08.197Z,89.69
2023-03-06T15:25:08.235Z,88.79
2023-03-06T15:26:08.165Z,89.73
2023-03-06T15:27:08.165Z,89.41
2023-03-06T15:28:08.173Z,89.62
2023-03-06T15:29:10.174Z,89.62
2023-03-06T15:30:09.165Z,89.35
2023-03-06T15:31:08.219Z,90.35
2023-03-06T15:32:08.121Z,89.98
2023-03-06T15:33:08.100Z,88.52
2023-03-06T15:34:09.083Z,88.76
2023-03-06T15:35:08.084Z,88.42
2023-03-06T15:36:08.064Z,88.20
2023-03-06T15:37:08.080Z,87.37
2023-03-06T15:38:08.043Z,87.41
2023-03-06T15:39:08.042Z,88.42
2023-03-06T15:40:08.112Z,87.41
2023-03-06T15:41:08.077Z,87.99
2023-03-06T15:42:07.988Z,88.35
2023-03-06T15:43:08.007Z,88.35
2023-03-06T15:44:07.964Z,88.56
2023-03-06T15:45:07.952Z,88.76
2023-03-06T15:46:08.122Z,89.39
2023-03-06T15:47:09.033Z,88.87
2023-03-06T15:48:08.969Z,89.70
2023-03-06T15:49:07.910Z,89.60
2023-03-06T15:50:07.914Z,88.98
2023-03-06T15:51:07.953Z,88.76
2023-03-06T15:52:07.880Z,88.76
2023-03-06T15:53:07.885Z,88.45
2023-03-06T15:54:12.210Z,88.24
2023-03-06T15:55:08.886Z,88.14
2023-03-06T15:56:07.827Z,87.62
2023-03-06T15:57:07.835Z,88.73
2023-03-06T15:58:07.810Z,88.83
2023-03-06T15:59:07.915Z,88.42
2023-03-06T16:00:12.914Z,88.52
2023-03-06T16:01:07.768Z,88.93
2023-03-06T16:02:07.774Z,89.35
2023-03-06T16:03:07.735Z,88.10
2023-03-06T16:04:07.775Z,88.62
2023-03-06T16:05:07.737Z,88.20
2023-03-06T16:06:07.725Z,88.52
2023-03-06T16:07:07.858Z,88.52
2023-03-06T16:08:09.046Z,87.99
2023-03-06T16:09:07.856Z,88.20
2023-03-06T16:10:07.654Z,86.96
2023-03-06T16:11:07.653Z,87.73
2023-03-06T16:12:07.678Z,88.20
2023-03-06T16:13:07.663Z,88.14
2023-03-06T16:14:07.602Z,86.99
2023-03-06T16:15:07.623Z,87.20
2023-03-06T16:16:07.729Z,86.79
2023-03-06T16:17:07.594Z,87.30
2023-03-06T16:18:07.609Z,86.99
2023-03-06T16:19:11.451Z,85.96
2023-03-06T16:20:07.550Z,85.85
2023-03-06T16:21:07.545Z,86.58
2023-03-06T16:22:07.518Z,86.27
2023-03-06T16:23:08.253Z,87.30
2023-03-06T16:24:07.489Z,88.35
2023-03-06T16:25:07.517Z,86.47
2023-03-06T16:26:07.457Z,86.79
2023-03-06T16:27:07.460Z,86.27
2023-03-06T16:28:07.562Z,86.89
2023-03-06T16:29:07.433Z,87.30
2023-03-06T16:30:07.418Z,88.98
2023-03-06T16:31:07.455Z,88.45
2023-03-06T16:32:07.444Z,88.45
2023-03-06T16:33:07.421Z,88.14
2023-03-06T16:34:07.434Z,89.08
2023-03-06T16:35:07.363Z,89.81
2023-03-06T16:36:07.339Z,89.56
2023-03-06T16:37:07.331Z,88.98
2023-03-06T16:38:07.343Z,89.50
2023-03-06T16:39:07.330Z,89.29
2023-03-06T16:40:08.313Z,90.06
2023-03-06T16:41:07.293Z,89.70
2023-03-06T16:42:07.284Z,89.70
2023-03-06T16:43:07.274Z,89.95
2023-03-06T16:44:07.305Z,90.33
2023-03-06T16:45:07.276Z,90.44
2023-03-06T16:46:07.252Z,89.60
2023-03-06T16:47:07.250Z,90.16
2023-03-06T16:48:07.200Z,90.12
2023-03-06T16:49:07.220Z,89.29
2023-03-06T16:50:07.448Z,89.39
2023-03-06T16:51:07.197Z,89.39
2023-03-06T16:52:07.164Z,89.64
2023-03-06T16:53:07.167Z,89.01
2023-03-06T16:54:07.163Z,90.16
2023-03-06T16:55:07.175Z,88.98
2023-03-06T16:56:07.154Z,88.56
2023-03-06T16:57:07.110Z,88.98
2023-03-06T16:58:07.106Z,88.87
2023-03-06T16:59:07.301Z,89.12
2023-03-06T17:00:07.146Z,89.29
2023-03-06T17:01:07.086Z,89.39
2023-03-06T17:02:07.084Z,88.56
2023-03-06T17:03:07.050Z,89.29
2023-03-06T17:04:07.031Z,89.22
2023-03-06T17:05:07.066Z,89.81
2023-03-06T17:06:07.050Z,89.29
2023-03-06T17:07:07.009Z,88.18
2023-03-06T17:08:06.987Z,86.61
2023-03-06T17:09:06.979Z,86.20
2023-03-06T17:10:06.967Z,86.83
2023-03-06T17:11:06.984Z,87.04
2023-03-06T17:12:06.948Z,86.51
2023-03-06T17:13:06.927Z,85.85
2023-03-06T17:14:07.086Z,85.99
2023-03-06T17:15:06.918Z,85.33
2023-03-06T17:16:06.951Z,85.89
2023-03-06T17:17:06.929Z,85.85
2023-03-06T17:18:06.879Z,86.58
2023-03-06T17:19:06.864Z,85.26
2023-03-06T17:20:06.870Z,84.95
2023-03-06T17:21:06.852Z,85.12
2023-03-06T17:22:06.866Z,85.12
2023-03-06T17:23:06.845Z,85.64
2023-03-06T17:24:06.825Z,85.22
2023-03-06T17:25:06.800Z,84.91
2023-03-06T17:26:06.803Z,84.81
2023-03-06T17:27:06.813Z,85.47
2023-03-06T17:28:06.768Z,85.43
2023-03-06T17:29:07.236Z,85.36
2023-03-06T17:30:06.747Z,85.22
2023-03-06T17:31:06.822Z,85.64
2023-03-06T17:32:06.737Z,85.43
2023-03-06T17:33:06.766Z,85.64
2023-03-06T17:34:06.704Z,85.53
2023-03-06T17:35:06.666Z,84.81
2023-03-06T17:36:06.661Z,84.81
2023-03-06T17:37:06.727Z,85.05
2023-03-06T17:38:06.670Z,85.33
2023-03-06T17:39:06.652Z,85.53
2023-03-06T17:40:06.639Z,85.02
2023-03-06T17:41:06.615Z,84.64
2023-03-06T17:42:06.603Z,85.02
2023-03-06T17:43:06.633Z,85.36
2023-03-06T17:44:06.596Z,85.36
2023-03-06T17:45:07.143Z,85.58
2023-03-06T17:46:06.701Z,85.68
2023-03-06T17:47:06.558Z,85.78
2023-03-06T17:48:06.524Z,85.68
2023-03-06T17:49:06.544Z,85.05
2023-03-06T17:50:06.504Z,85.68
2023-03-06T17:51:06.528Z,85.78
2023-03-06T17:52:06.484Z,85.16
2023-03-06T17:53:06.494Z,86.97
2023-03-06T17:54:07.008Z,86.76
2023-03-06T17:55:06.444Z,86.87
2023-03-06T17:56:06.436Z,86.69
2023-03-06T17:57:06.451Z,86.59
2023-03-06T17:58:06.437Z,87.12
2023-03-06T17:59:06.455Z,86.91
2023-03-06T18:00:06.400Z,86.91
2023-03-06T18:01:06.382Z,86.80
2023-03-06T18:02:06.627Z,87.12
2023-03-06T18:03:06.402Z,87.39
2023-03-06T18:04:06.336Z,87.22
2023-03-06T18:05:06.372Z,87.43
2023-03-06T18:06:06.330Z,86.91
2023-03-06T18:07:06.320Z,86.91
2023-03-06T18:08:06.278Z,86.80
2023-03-06T18:09:06.317Z,87.32
2023-03-06T18:10:06.345Z,87.84
2023-03-06T18:11:06.263Z,88.26
2023-03-06T18:12:06.266Z,88.16
2023-03-06T18:13:06.244Z,87.78
2023-03-06T18:14:06.256Z,88.06
2023-03-06T18:15:06.269Z,88.41
2023-03-06T18:16:06.293Z,87.63
2023-03-06T18:17:06.199Z,87.84
2023-03-06T18:18:06.188Z,87.63
2023-03-06T18:19:06.361Z,88.99
2023-03-06T18:20:06.214Z,88.37
2023-03-06T18:23:24.073Z,88.37
2023-03-06T18:24:24.133Z,87.95
2023-03-06T18:25:24.022Z,87.95
2023-03-06T18:26:23.933Z,88.20
2023-03-06T18:27:23.962Z,88.30
2023-03-06T18:28:23.891Z,87.78
2023-03-06T18:29:23.951Z,89.03
2023-03-06T18:30:23.856Z,88.93
2023-03-06T18:31:23.912Z,88.30
2023-03-06T18:32:23.876Z,88.41
2023-03-06T18:33:23.827Z,88.82
2023-03-06T18:34:23.812Z,89.18
2023-03-06T18:35:23.881Z,89.07
2023-03-06T18:36:23.779Z,89.49
2023-03-06T18:37:23.825Z,89.66
2023-03-06T18:38:23.757Z,89.28
2023-03-06T18:39:23.758Z,89.81
2023-03-06T18:40:24.907Z,88.97
2023-03-06T18:41:23.766Z,89.18
2023-03-06T18:42:23.809Z,88.62
2023-03-06T18:43:23.745Z,88.34
2023-03-06T18:44:23.696Z,88.76
2023-03-06T18:45:23.673Z,89.18
2023-03-06T18:46:23.699Z,89.28
2023-03-06T18:47:24.492Z,89.70
2023-03-06T18:48:23.656Z,89.39
2023-03-06T18:49:23.628Z,89.81
2023-03-06T18:50:23.626Z,89.49
2023-03-06T18:51:23.644Z,89.91
2023-03-06T18:52:23.586Z,90.12
2023-03-06T18:53:23.565Z,90.06
2023-03-06T18:54:23.589Z,90.26
2023-03-06T18:55:23.543Z,90.26
2023-03-06T18:56:23.524Z,90.43
2023-03-06T18:57:23.522Z,90.43
2023-03-06T18:58:23.501Z,90.43
2023-03-06T18:59:23.492Z,90.47
2023-03-06T19:00:23.498Z,90.16
2023-03-06T19:01:23.540Z,90.78
2023-03-06T19:02:23.455Z,90.75
2023-03-06T19:03:23.442Z,90.06
2023-03-06T19:04:23.496Z,90.68
2023-03-06T19:05:23.439Z,90.16
2023-03-06T19:06:23.412Z,90.06
2023-03-06T19:07:23.395Z,90.16
2023-03-06T19:08:23.448Z,90.33
2023-03-06T19:09:23.379Z,90.12
2023-03-06T19:10:23.388Z,90.16
2023-03-06T19:11:23.375Z,90.47
2023-03-06T19:12:23.335Z,90.12
2023-03-06T19:13:23.319Z,89.95
2023-03-06T19:14:23.336Z,89.59
2023-03-06T19:15:23.305Z,89.91
2023-03-06T19:16:23.372Z,90.06
2023-03-06T19:17:24.926Z,89.84
2023-03-06T19:18:23.269Z,89.84
2023-03-06T19:19:23.247Z,89.95
2023-03-06T19:20:23.297Z,90.31
2023-03-06T19:21:23.214Z,90.16
2023-03-06T19:22:23.246Z,89.32
2023-03-06T19:23:23.198Z,89.95
2023-03-06T19:24:23.213Z,89.95
2023-03-06T19:25:23.184Z,90.31
2023-03-06T19:26:23.164Z,89.95
2023-03-06T19:27:23.193Z,89.84
2023-03-06T19:28:23.493Z,89.53
2023-03-06T19:29:23.127Z,89.95
2023-03-06T19:30:23.117Z,89.26
2023-03-06T19:31:23.169Z,89.84
2023-03-06T19:32:23.210Z,89.43
2023-03-06T19:33:23.239Z,89.53
2023-03-06T19:34:23.073Z,89.84
2023-03-06T19:35:23.144Z,89.74
2023-03-06T19:36:23.044Z,89.43
2023-03-06T19:37:23.024Z,89.59
2023-03-06T19:38:23.212Z,89.43
2023-03-06T19:39:23.002Z,89.11
2023-03-06T19:40:22.995Z,89.32
2023-03-06T19:41:22.968Z,89.84
2023-03-06T19:42:22.966Z,89.64
2023-03-06T19:43:22.959Z,89.26
2023-03-06T19:44:23.019Z,89.32
2023-03-06T19:45:22.938Z,89.64
2023-03-06T19:46:22.917Z,89.64
2023-03-06T19:47:22.920Z,89.32
2023-03-06T19:48:22.919Z,89.64
2023-03-06T19:49:22.941Z,89.53
2023-03-06T19:50:22.934Z,89.84
2023-03-06T19:51:22.899Z,89.43
2023-03-06T19:52:22.839Z,89.53
2023-03-06T19:53:22.856Z,89.84
2023-03-06T19:54:22.817Z,89.64
2023-03-06T19:55:22.822Z,89.95
2023-03-06T19:56:22.807Z,90.06
2023-03-06T19:57:22.816Z,89.47
2023-03-06T19:58:22.766Z,90.41
2023-03-06T19:59:22.788Z,90.06
2023-03-06T20:00:22.784Z,90.52
2023-03-06T20:01:22.795Z,90.52
2023-03-06T20:02:22.731Z,90.37
2023-03-06T20:03:22.714Z,90.09
2023-03-06T20:04:22.744Z,89.89
2023-03-06T20:05:22.683Z,90.31
2023-03-06T20:06:22.701Z,90.20
2023-03-06T20:07:22.664Z,90.72
2023-03-06T20:08:22.646Z,90.83
2023-03-06T20:09:22.661Z,91.08
2023-03-06T20:10:22.651Z,90.87
2023-03-06T20:11:22.602Z,91.14
2023-03-06T20:12:22.713Z,90.97
2023-03-06T20:13:22.587Z,91.60
2023-03-06T20:14:22.573Z,91.50
2023-03-06T20:15:24.126Z,91.60
2023-03-06T20:16:23.691Z,91.81
2023-03-06T20:17:23.727Z,91.54
2023-03-06T20:18:23.652Z,91.54
2023-03-06T20:19:23.660Z,92.06
2023-03-06T20:20:23.632Z,91.81
2023-03-06T20:21:23.745Z,92.23
2023-03-06T20:22:23.666Z,92.02
2023-03-06T20:23:23.627Z,92.16
2023-03-06T20:24:23.622Z,92.13
2023-03-06T20:25:23.580Z,92.02
2023-03-06T20:26:23.566Z,92.33
2023-03-06T20:27:23.543Z,92.02
2023-03-06T20:28:23.636Z,92.23
2023-03-06T20:29:23.612Z,92.13
2023-03-06T20:30:24.259Z,92.08
2023-03-06T20:31:23.614Z,92.08
2023-03-06T20:32:23.782Z,91.98
2023-03-06T20:33:23.589Z,92.08
2023-03-06T20:34:23.492Z,91.81
2023-03-06T20:35:23.537Z,92.23
2023-03-06T20:36:24.515Z,92.23
2023-03-06T20:37:23.501Z,92.44
2023-03-06T20:38:25.319Z,92.33
2023-03-06T20:39:23.498Z,92.33
2023-03-06T20:40:23.453Z,92.40
2023-03-06T20:41:23.483Z,92.19
2023-03-06T20:42:23.431Z,92.08
2023-03-06T20:43:23.449Z,91.87
2023-03-06T20:44:23.437Z,92.23
2023-03-06T20:45:23.389Z,92.44
2023-03-06T20:46:25.295Z,92.44
2023-03-06T20:47:23.872Z,92.23
2023-03-06T20:48:23.476Z,92.54
2023-03-06T20:49:26.174Z,92.44
2023-03-06T20:50:25.408Z,92.75
2023-03-06T20:51:24.303Z,92.19
2023-03-06T20:54:57.653Z,92.23
2023-03-06T20:55:57.668Z,92.13
2023-03-06T20:56:57.637Z,92.54
2023-03-06T20:57:57.547Z,92.33
2023-03-06T20:58:57.505Z,92.54
2023-03-06T20:59:57.659Z,92.19
2023-03-06T21:00:57.604Z,92.50
2023-03-06T21:01:57.559Z,92.29
2023-03-06T21:02:57.469Z,92.02
2023-03-06T21:03:57.618Z,92.08
2023-03-06T21:04:57.415Z,92.29
2023-03-06T21:05:57.384Z,92.08
2023-03-06T21:06:57.394Z,92.50
2023-03-06T21:07:57.363Z,92.50
2023-03-06T21:08:57.344Z,92.50
2023-03-06T21:09:57.345Z,92.82
2023-03-06T21:10:57.327Z,92.60
2023-03-06T21:11:57.346Z,92.82
2023-03-06T21:12:57.297Z,92.71
2023-03-06T21:13:57.317Z,92.75
2023-03-06T21:14:57.281Z,93.13
2023-03-06T21:15:57.321Z,93.33
2023-03-06T21:16:57.264Z,93.44
2023-03-06T21:17:57.276Z,93.23
2023-03-06T21:18:57.236Z,93.65
2023-03-06T21:19:57.228Z,93.23
2023-03-06T21:20:57.212Z,93.44
2023-03-06T21:21:57.221Z,93.44
2023-03-06T21:25:11.467Z,93.96
2023-03-06T21:26:11.491Z,93.96
2023-03-06T21:27:12.229Z,94.17
2023-03-06T21:28:11.538Z,94.07